createdAt,value
2022-11-12T00:00:52.830Z,14.03
2022-11-12T00:03:19.598Z,15.80
2022-11-12T00:05:46.783Z,14.23
2022-11-12T00:08:13.776Z,15.00
2022-11-12T00:10:40.184Z,15.63
2022-11-12T00:13:06.955Z,19.30
2022-11-12T00:15:33.332Z,18.10
2022-11-12T00:17:59.750Z,17.50
2022-11-12T00:20:26.124Z,19.23
2022-11-12T00:22:52.514Z,19.13
2022-11-12T00:25:19.044Z,16.73
2022-11-12T00:27:45.593Z,18.33
2022-11-12T00:30:12.688Z,18.20
2022-11-12T00:32:39.199Z,19.63
2022-11-12T00:35:08.711Z,19.47
2022-11-12T00:37:37.686Z,20.30
2022-11-12T00:40:04.663Z,20.67
2022-11-12T00:42:31.066Z,24.27
2022-11-12T00:44:57.395Z,25.43
2022-11-12T00:47:23.788Z,24.07
2022-11-12T00:49:50.222Z,27.07
2022-11-12T00:52:16.632Z,29.83
2022-11-12T00:54:43.006Z,25.20
2022-11-12T00:57:09.382Z,30.80
2022-11-12T00:59:35.800Z,31.23
2022-11-12T01:02:02.154Z,24.20
2022-11-12T01:04:28.590Z,30.03
2022-11-12T01:06:55.114Z,30.73
2022-11-12T01:09:21.510Z,35.03
2022-11-12T01:11:48.915Z,34.40
2022-11-12T01:14:15.387Z,27.20
2022-11-12T01:16:42.941Z,35.13
2022-11-12T01:19:11.736Z,26.27
2022-11-12T01:21:43.981Z,36.10
2022-11-12T01:24:11.365Z,32.33
2022-11-12T01:26:38.834Z,25.23
2022-11-12T01:29:05.604Z,31.93
2022-11-12T01:31:37.504Z,36.43
2022-11-12T01:34:07.405Z,30.73
2022-11-12T01:36:38.710Z,26.07
2022-11-12T01:39:07.346Z,33.97
2022-11-12T01:41:37.265Z,37.13
2022-11-12T01:44:19.657Z,34.17
2022-11-12T01:46:54.479Z,31.57
2022-11-12T01:49:36.702Z,38.90
2022-11-12T01:52:15.491Z,36.93
2022-11-12T01:54:49.654Z,38.60
2022-11-12T01:57:20.413Z,37.83
2022-11-12T01:59:51.362Z,36.67
2022-11-12T02:02:17.935Z,32.53
2022-11-12T02:04:45.001Z,42.87
2022-11-12T02:07:11.926Z,40.27
2022-11-12T02:09:38.500Z,36.73
2022-11-12T02:12:05.745Z,37.60
2022-11-12T02:14:32.696Z,44.20
2022-11-12T02:17:00.022Z,35.27
2022-11-12T02:19:26.595Z,30.17
2022-11-12T02:21:53.085Z,39.90
2022-11-12T02:24:19.390Z,34.20
2022-11-12T02:26:51.370Z,43.50
2022-11-12T02:29:17.812Z,42.03
2022-11-12T02:31:44.268Z,41.43
2022-11-12T02:34:10.750Z,39.67
2022-11-12T02:36:37.227Z,47.03
2022-11-12T02:39:04.041Z,41.17
2022-11-12T02:41:30.573Z,39.50
2022-11-12T02:43:57.014Z,43.77
2022-11-12T02:46:23.557Z,42.57
2022-11-12T02:48:49.909Z,42.33
2022-11-12T02:51:16.286Z,40.60
2022-11-12T02:53:42.650Z,42.00
2022-11-12T02:56:09.015Z,45.33
2022-11-12T02:58:35.455Z,45.80
2022-11-12T03:01:01.990Z,44.53
2022-11-12T03:03:28.385Z,45.23
2022-11-12T03:05:57.070Z,43.93
2022-11-12T03:08:24.571Z,45.17
2022-11-12T03:10:51.726Z,41.37
2022-11-12T03:13:18.123Z,49.37
2022-11-12T03:15:44.540Z,44.87
2022-11-12T03:18:10.938Z,34.93
2022-11-12T03:20:37.314Z,40.77
2022-11-12T03:23:06.597Z,40.20
2022-11-12T03:25:33.405Z,36.57
2022-11-12T03:28:08.912Z,36.47
2022-11-12T03:30:38.813Z,41.37
2022-11-12T03:33:06.531Z,41.03
2022-11-12T03:35:33.827Z,39.00
2022-11-12T03:38:01.390Z,40.70
2022-11-12T03:40:28.706Z,41.47
2022-11-12T03:42:55.199Z,39.93
2022-11-12T03:45:23.456Z,39.73
2022-11-12T03:47:52.582Z,45.53
2022-11-12T03:50:21.010Z,42.70
2022-11-12T03:52:49.301Z,44.90
2022-11-12T03:55:17.937Z,44.87
2022-11-12T03:57:44.936Z,44.30
2022-11-12T04:00:12.517Z,46.80
2022-11-12T04:02:38.925Z,45.07
2022-11-12T04:05:26.001Z,39.77
2022-11-12T04:08:16.836Z,50.87
2022-11-12T04:10:43.507Z,51.07
2022-11-12T04:13:28.196Z,48.70
2022-11-12T04:16:25.676Z,58.13
2022-11-12T04:19:14.579Z,45.13
2022-11-12T04:21:51.335Z,52.63
2022-11-12T04:24:45.680Z,50.37
2022-11-12T04:27:23.433Z,54.97
2022-11-12T04:30:09.733Z,56.33
2022-11-12T04:32:39.446Z,48.97
2022-11-12T04:35:07.787Z,55.43
2022-11-12T04:37:44.956Z,50.87
2022-11-12T04:40:43.677Z,51.17
2022-11-12T04:43:34.031Z,44.43
2022-11-12T04:46:01.504Z,53.47
2022-11-12T04:48:28.894Z,50.63
2022-11-12T04:51:01.016Z,53.63
2022-11-12T04:53:28.741Z,53.23
2022-11-12T04:55:57.592Z,57.53
2022-11-12T04:58:24.819Z,52.40
2022-11-12T05:00:51.860Z,58.00
2022-11-12T05:03:18.646Z,51.83
2022-11-12T05:05:45.105Z,49.90
2022-11-12T05:08:11.482Z,54.30
2022-11-12T05:10:37.933Z,50.63
2022-11-12T05:13:04.302Z,57.97
2022-11-12T05:15:30.668Z,51.87
2022-11-12T05:17:57.389Z,48.73
2022-11-12T05:20:23.769Z,54.17
2022-11-12T05:23:04.931Z,51.43
2022-11-12T05:25:31.791Z,54.07
2022-11-12T05:27:58.157Z,56.27
2022-11-12T05:30:24.648Z,61.03
2022-11-12T05:32:51.329Z,51.83
2022-11-12T05:35:17.812Z,59.30
2022-11-12T05:37:44.196Z,61.53
2022-11-12T05:40:10.938Z,49.27
2022-11-12T05:42:37.417Z,54.10
2022-11-12T05:45:04.343Z,58.07
2022-11-12T05:47:30.699Z,56.87
2022-11-12T05:49:57.108Z,51.27
2022-11-12T05:52:23.533Z,54.70
2022-11-12T05:54:50.025Z,50.93
2022-11-12T05:57:16.361Z,59.17
2022-11-12T05:59:42.812Z,51.43
2022-11-12T06:02:09.264Z,53.50
2022-11-12T06:04:35.660Z,50.47
2022-11-12T06:07:04.147Z,53.13
2022-11-12T06:09:30.708Z,50.77
2022-11-12T06:11:57.069Z,52.07
2022-11-12T06:14:23.447Z,55.13
2022-11-12T06:16:49.834Z,50.40
2022-11-12T06:19:16.173Z,46.10
2022-11-12T06:21:42.609Z,47.57
2022-11-12T06:24:09.475Z,38.63
2022-11-12T06:26:37.868Z,43.27
2022-11-12T06:29:04.301Z,41.27
2022-11-12T06:31:30.739Z,45.23
2022-11-12T06:33:58.135Z,38.73
2022-11-12T06:36:24.666Z,29.13
2022-11-12T06:38:51.086Z,29.50
2022-11-12T06:41:17.644Z,27.93
2022-11-12T06:43:44.146Z,28.07
2022-11-12T06:46:16.396Z,27.07
2022-11-12T06:48:42.988Z,26.30
2022-11-12T06:51:18.275Z,27.43
2022-11-12T06:53:45.112Z,22.87
2022-11-12T06:56:12.040Z,26.87
2022-11-12T06:58:38.825Z,19.97
2022-11-12T07:01:11.753Z,19.00
2022-11-12T07:03:40.012Z,35.33
2022-11-12T07:06:09.595Z,20.40
2022-11-12T07:08:36.025Z,15.73
2022-11-12T07:11:02.865Z,17.13
2022-11-12T07:13:34.325Z,18.47
2022-11-12T07:16:01.617Z,15.80
2022-11-12T07:18:29.613Z,17.33
2022-11-12T07:21:00.823Z,14.27
2022-11-12T07:23:28.145Z,14.57
2022-11-12T07:26:01.973Z,18.10
2022-11-12T07:28:29.899Z,22.47
2022-11-12T07:31:05.814Z,20.47
2022-11-12T07:33:33.635Z,16.17
2022-11-12T07:36:05.983Z,15.97
2022-11-12T07:38:34.941Z,13.97
2022-11-12T07:41:11.167Z,19.83
2022-11-12T07:43:39.331Z,16.53
2022-11-12T07:46:10.903Z,13.50
2022-11-12T07:48:38.541Z,14.17
2022-11-12T07:51:12.706Z,19.13
2022-11-12T07:53:39.625Z,14.07
2022-11-12T07:56:06.711Z,15.03
2022-11-12T07:58:34.329Z,15.23
2022-11-12T08:01:28.174Z,15.27
2022-11-12T08:03:54.757Z,12.07
2022-11-12T08:06:21.568Z,16.93
2022-11-12T08:08:47.975Z,12.97
2022-11-12T08:11:14.478Z,11.30
2022-11-12T08:13:40.887Z,11.50
2022-11-12T08:16:07.484Z,11.67
2022-11-12T08:18:34.239Z,12.30
2022-11-12T08:21:05.069Z,14.87
2022-11-12T08:23:31.650Z,17.20
2022-11-12T08:26:01.373Z,13.33
2022-11-12T08:28:35.755Z,14.63
2022-11-12T08:31:18.468Z,15.90
2022-11-12T08:33:45.218Z,14.40
2022-11-12T08:36:13.861Z,17.97
2022-11-12T08:38:41.053Z,17.33
2022-11-12T08:41:10.014Z,16.97
2022-11-12T08:43:37.239Z,16.43
2022-11-12T08:46:04.166Z,15.23
2022-11-12T08:48:31.534Z,15.07
2022-11-12T08:50:58.508Z,15.60
2022-11-12T08:53:25.265Z,17.40
2022-11-12T08:55:55.717Z,16.93
2022-11-12T08:58:22.719Z,14.20
2022-11-12T09:00:50.938Z,16.00
2022-11-12T09:03:19.790Z,16.47
2022-11-12T09:05:46.464Z,17.57
2022-11-12T09:08:17.429Z,15.23
2022-11-12T09:10:44.558Z,17.77
2022-11-12T09:13:11.450Z,19.27
2022-11-12T09:15:38.903Z,14.33
2022-11-12T09:18:10.600Z,16.80
2022-11-12T09:20:37.022Z,15.13
2022-11-12T09:23:08.907Z,16.03
2022-11-12T09:25:36.528Z,17.20
2022-11-12T09:28:10.102Z,16.23
2022-11-12T09:30:38.072Z,15.73
2022-11-12T09:33:04.901Z,11.13
2022-11-12T09:35:31.532Z,18.13
2022-11-12T09:37:59.437Z,16.23
2022-11-12T09:40:41.680Z,16.07
2022-11-12T09:43:26.130Z,20.37
2022-11-12T09:46:13.976Z,19.10
2022-11-12T09:48:47.413Z,21.10
2022-11-12T09:51:24.436Z,22.07
2022-11-12T09:53:56.513Z,20.87
2022-11-12T09:56:24.411Z,21.67
2022-11-12T09:58:52.251Z,20.47
2022-11-12T10:01:24.202Z,21.40
2022-11-12T10:04:09.128Z,18.63
2022-11-12T10:06:44.966Z,18.43
2022-11-12T10:09:19.530Z,18.60
2022-11-12T10:12:16.981Z,16.70
2022-11-12T10:15:21.365Z,20.50
2022-11-12T10:18:11.272Z,15.23
2022-11-12T10:20:50.233Z,16.90
2022-11-12T10:23:29.176Z,17.87
2022-11-12T10:25:59.908Z,19.13
2022-11-12T10:28:38.587Z,20.27
2022-11-12T10:31:17.598Z,15.07
2022-11-12T10:33:44.494Z,18.87
2022-11-12T10:36:28.844Z,15.27
2022-11-12T10:38:55.528Z,16.37
2022-11-12T10:41:28.094Z,15.60
2022-11-12T10:44:05.615Z,15.10
2022-11-12T10:46:37.619Z,12.77
2022-11-12T10:49:22.615Z,13.97
2022-11-12T10:51:57.855Z,18.30
2022-11-12T10:54:29.618Z,15.43
2022-11-12T10:56:56.357Z,11.87
2022-11-12T10:59:26.202Z,12.63
2022-11-12T11:01:58.650Z,12.07
2022-11-12T11:04:36.783Z,11.97
2022-11-12T11:07:07.391Z,11.37
2022-11-12T11:09:34.672Z,11.27
2022-11-12T11:12:01.158Z,10.57
2022-11-12T11:14:35.417Z,11.07
2022-11-12T11:17:08.340Z,9.57
2022-11-12T11:19:41.623Z,6.90
2022-11-12T11:22:18.417Z,9.23
2022-11-12T11:24:58.174Z,9.37
2022-11-12T11:28:17.557Z,9.50
2022-11-12T11:30:56.636Z,8.67
2022-11-12T11:33:32.646Z,8.27
2022-11-12T11:36:15.901Z,8.60
2022-11-12T11:38:57.657Z,15.83
2022-11-12T11:41:43.582Z,11.77
2022-11-12T11:44:14.228Z,8.50
2022-11-12T11:47:13.090Z,7.87
2022-11-12T11:50:04.334Z,9.67
2022-11-12T11:52:46.363Z,8.77
2022-11-12T11:55:45.164Z,10.70
2022-11-12T11:58:11.557Z,9.27
2022-11-12T12:00:51.163Z,9.87
2022-11-12T12:03:29.149Z,8.17
2022-11-12T12:06:07.002Z,8.93
2022-11-12T12:08:44.960Z,7.83
2022-11-12T12:11:20.475Z,7.00
2022-11-12T12:14:05.703Z,7.90
2022-11-12T12:16:48.026Z,5.97
2022-11-12T12:19:32.629Z,8.47
2022-11-12T12:22:01.345Z,6.60
2022-11-12T12:24:38.629Z,5.57
2022-11-12T12:27:24.814Z,5.80
2022-11-12T12:29:56.245Z,8.03
2022-11-12T12:32:27.569Z,8.20
2022-11-12T12:35:30.985Z,5.70
2022-11-12T12:38:20.562Z,5.27
2022-11-12T12:40:58.891Z,5.93
2022-11-12T12:43:45.196Z,7.90
2022-11-12T12:46:14.286Z,6.70
2022-11-12T12:48:43.749Z,5.67
2022-11-12T12:51:10.833Z,7.07
2022-11-12T12:53:37.638Z,5.37
2022-11-12T12:56:06.225Z,5.03
2022-11-12T12:58:48.227Z,7.40
2022-11-12T13:01:21.104Z,5.57
2022-11-12T13:04:11.858Z,4.57
2022-11-12T13:06:53.827Z,5.23
2022-11-12T13:09:26.173Z,4.80
2022-11-12T13:12:06.620Z,4.87
2022-11-12T13:14:36.129Z,5.33
2022-11-12T13:17:06.609Z,4.87
2022-11-12T13:19:58.199Z,5.97
2022-11-12T13:22:24.582Z,6.07
2022-11-12T13:25:26.423Z,5.53
2022-11-12T13:27:52.734Z,9.47
2022-11-12T13:30:41.991Z,5.87
2022-11-12T13:33:23.650Z,6.80
2022-11-12T13:35:50.144Z,10.20
2022-11-12T13:38:16.855Z,7.43
2022-11-12T13:41:08.755Z,8.37
2022-11-12T13:43:47.413Z,6.27
2022-11-12T13:46:33.942Z,6.33
2022-11-12T13:49:03.296Z,9.97
2022-11-12T13:51:35.253Z,9.07
2022-11-12T13:54:02.312Z,7.80
2022-11-12T13:56:31.764Z,6.30
2022-11-12T13:59:19.319Z,7.87
2022-11-12T14:01:47.342Z,7.70
2022-11-12T14:04:16.903Z,7.90
2022-11-12T14:06:46.760Z,10.23
2022-11-12T14:09:31.788Z,10.97
2022-11-12T14:12:05.971Z,11.97
2022-11-12T14:15:08.394Z,8.90
2022-11-12T14:17:47.079Z,9.00
2022-11-12T14:20:31.152Z,9.03
2022-11-12T14:23:09.425Z,8.23
2022-11-12T14:25:47.109Z,8.83
2022-11-12T14:28:30.832Z,9.10
2022-11-12T14:30:59.276Z,9.73
2022-11-12T14:33:27.808Z,10.87
2022-11-12T14:35:59.708Z,9.07
2022-11-12T14:38:37.067Z,8.17
2022-11-12T14:41:22.084Z,8.60
2022-11-12T14:44:07.431Z,7.57
2022-11-12T14:46:45.775Z,8.07
2022-11-12T14:49:21.728Z,9.07
2022-11-12T14:51:53.170Z,7.83
2022-11-12T14:54:28.770Z,9.87
2022-11-12T14:56:55.667Z,12.10
2022-11-12T14:59:22.402Z,9.07
2022-11-12T15:05:16.208Z,8.70
2022-11-12T15:07:54.852Z,9.70
2022-11-12T15:10:31.016Z,9.33
2022-11-12T15:13:09.616Z,8.13
2022-11-12T15:15:40.276Z,9.57
2022-11-12T15:18:21.624Z,7.10
2022-11-12T15:21:12.524Z,9.80
2022-11-12T15:23:50.457Z,8.47
2022-11-12T15:26:30.976Z,8.17
2022-11-12T15:29:10.095Z,9.43
2022-11-12T15:31:50.965Z,12.53
2022-11-12T15:34:38.397Z,10.03
2022-11-12T15:37:10.605Z,11.33
2022-11-12T15:39:43.247Z,9.17
2022-11-12T15:42:17.250Z,9.37
2022-11-12T15:44:44.224Z,8.43
2022-11-12T15:47:21.661Z,8.67
2022-11-12T15:49:53.357Z,9.63
2022-11-12T15:52:20.139Z,10.90
2022-11-12T15:54:46.892Z,10.00
2022-11-12T15:57:23.287Z,8.87
2022-11-12T16:00:08.478Z,11.00
2022-11-12T16:02:35.558Z,12.40
2022-11-12T16:05:02.224Z,13.30
2022-11-12T16:07:28.590Z,12.70
2022-11-12T16:09:55.104Z,11.30
2022-11-12T16:12:21.670Z,14.50
2022-11-12T16:14:48.043Z,10.80
2022-11-12T16:17:18.312Z,10.43
2022-11-12T16:19:44.739Z,12.60
2022-11-12T16:22:14.296Z,9.73
2022-11-12T16:24:41.871Z,11.97
2022-11-12T16:27:13.392Z,13.33
2022-11-12T16:29:40.081Z,14.20
2022-11-12T16:32:06.538Z,11.50
2022-11-12T16:34:32.923Z,13.13
2022-11-12T16:36:59.340Z,13.73
2022-11-12T16:39:25.749Z,15.83
2022-11-12T16:41:52.118Z,15.13
2022-11-12T16:44:18.530Z,14.70
2022-11-12T16:46:45.052Z,13.70
2022-11-12T16:49:13.095Z,14.10
2022-11-12T16:51:39.556Z,12.17
2022-11-12T16:54:06.556Z,14.20
2022-11-12T16:56:33.439Z,13.23
2022-11-12T16:59:00.208Z,12.93
2022-11-12T17:01:29.200Z,14.20
2022-11-12T17:03:57.045Z,12.73
2022-11-12T17:06:37.646Z,14.43
2022-11-12T17:09:05.443Z,13.63
2022-11-12T17:11:32.830Z,13.40
2022-11-12T17:14:04.661Z,14.40
2022-11-12T17:16:32.433Z,13.67
2022-11-12T17:19:01.360Z,14.07
2022-11-12T17:21:27.845Z,13.23
2022-11-12T17:23:55.430Z,16.20
2022-11-12T17:26:22.392Z,21.47
2022-11-12T17:28:51.552Z,21.43
2022-11-12T17:31:22.323Z,28.80
2022-11-12T17:33:50.815Z,29.13
2022-11-12T17:36:22.664Z,28.03
2022-11-12T17:38:49.275Z,26.60
2022-11-12T17:41:15.671Z,22.73
2022-11-12T17:43:42.141Z,29.23
2022-11-12T17:46:09.772Z,20.47
2022-11-12T17:48:37.496Z,22.50
2022-11-12T17:51:07.503Z,22.60
2022-11-12T17:53:34.609Z,25.60
2022-11-12T17:56:01.814Z,21.37
2022-11-12T17:58:28.827Z,41.83
2022-11-12T18:00:55.599Z,68.73
2022-11-12T18:03:21.997Z,35.37
2022-11-12T18:05:56.627Z,44.40
2022-11-12T18:08:23.139Z,34.07
2022-11-12T18:10:49.528Z,23.90
2022-11-12T18:13:15.917Z,23.23
2022-11-12T18:15:42.270Z,19.70
2022-11-12T18:18:08.644Z,20.80
2022-11-12T18:20:35.217Z,23.60
2022-11-12T18:23:01.550Z,22.90
2022-11-12T18:25:27.926Z,20.73
2022-11-12T18:27:54.386Z,29.17
2022-11-12T18:30:20.849Z,23.63
2022-11-12T18:32:47.308Z,19.93
2022-11-12T18:35:13.809Z,19.57
2022-11-12T18:37:41.212Z,19.67
2022-11-12T18:40:08.057Z,18.27
2022-11-12T18:42:34.493Z,19.80
2022-11-12T18:45:00.982Z,19.50
2022-11-12T18:47:29.627Z,20.80
2022-11-12T18:49:56.015Z,17.70
2022-11-12T18:52:22.384Z,19.97
2022-11-12T18:54:48.725Z,18.13
2022-11-12T18:57:15.157Z,19.73
2022-11-12T18:59:41.519Z,19.23
2022-11-12T19:02:11.160Z,20.07
2022-11-12T19:04:44.001Z,21.80
2022-11-12T19:07:11.672Z,19.90
2022-11-12T19:09:38.138Z,24.20
2022-11-12T19:12:05.039Z,21.27
2022-11-12T19:14:31.492Z,21.30
2022-11-12T19:16:57.860Z,20.30
2022-11-12T19:19:24.254Z,25.40
2022-11-12T19:21:50.722Z,21.70
2022-11-12T19:24:17.178Z,22.90
2022-11-12T19:26:43.714Z,20.57
2022-11-12T19:29:10.214Z,20.47
2022-11-12T19:31:36.853Z,21.13
2022-11-12T19:34:03.351Z,20.27
2022-11-12T19:36:29.848Z,22.00
2022-11-12T19:39:02.440Z,20.83
2022-11-12T19:41:29.143Z,21.90
2022-11-12T19:43:55.983Z,23.40
2022-11-12T19:46:22.452Z,25.27
2022-11-12T19:48:48.901Z,23.93
2022-11-12T19:51:15.419Z,23.73
2022-11-12T19:53:46.363Z,26.07
2022-11-12T19:56:17.202Z,28.20
2022-11-12T19:58:48.121Z,28.27
2022-11-12T20:01:17.698Z,27.07
2022-11-12T20:03:44.542Z,27.33
2022-11-12T20:06:16.681Z,26.30
2022-11-12T20:08:43.197Z,28.03
2022-11-12T20:11:10.235Z,26.87
2022-11-12T20:13:37.212Z,25.20
2022-11-12T20:16:12.819Z,26.90
2022-11-12T20:18:39.625Z,24.20
2022-11-12T20:21:06.400Z,27.33
2022-11-12T20:23:33.849Z,28.97
2022-11-12T20:26:08.731Z,27.83
2022-11-12T20:28:39.228Z,23.43
2022-11-12T20:31:06.876Z,25.97
2022-11-12T20:33:36.728Z,25.03
2022-11-12T20:36:12.536Z,25.00
2022-11-12T20:38:40.739Z,23.13
2022-11-12T20:41:12.110Z,25.13
2022-11-12T20:43:38.477Z,24.53
2022-11-12T20:46:05.002Z,27.00
2022-11-12T20:48:31.422Z,25.53
2022-11-12T20:51:23.279Z,23.57
2022-11-12T20:53:54.621Z,24.03
2022-11-12T20:56:26.887Z,21.67
2022-11-12T20:58:54.451Z,24.43
2022-11-12T21:01:23.008Z,28.33
2022-11-12T21:03:49.794Z,29.10
2022-11-12T21:06:18.824Z,31.30
2022-11-12T21:08:45.312Z,29.93
2022-11-12T21:11:14.349Z,28.87
2022-11-12T21:13:41.438Z,26.70
2022-11-12T21:16:09.195Z,27.13
2022-11-12T21:18:36.485Z,25.07
2022-11-12T21:21:08.703Z,24.47
2022-11-12T21:23:40.472Z,26.00
2022-11-12T21:26:14.093Z,23.43
2022-11-12T21:28:45.247Z,27.50
2022-11-12T21:31:17.386Z,31.23
2022-11-12T21:33:44.291Z,27.13
2022-11-12T21:36:16.139Z,30.30
2022-11-12T21:38:43.055Z,24.97
2022-11-12T21:41:14.972Z,22.80
2022-11-12T21:43:43.611Z,24.87
2022-11-12T21:46:12.056Z,30.77
2022-11-12T21:48:38.622Z,32.40
2022-11-12T21:51:09.836Z,28.97
2022-11-12T21:53:36.331Z,25.47
2022-11-12T21:56:08.498Z,28.80
2022-11-12T21:58:34.917Z,29.97
2022-11-12T22:01:21.796Z,25.97
2022-11-12T22:03:49.926Z,27.00
2022-11-12T22:06:17.551Z,28.10
2022-11-12T22:08:44.333Z,29.17
2022-11-12T22:11:15.643Z,30.87
2022-11-12T22:13:42.624Z,28.20
2022-11-12T22:16:10.966Z,29.50
2022-11-12T22:18:38.047Z,30.17
2022-11-12T22:21:07.485Z,31.37
2022-11-12T22:23:36.099Z,26.30
2022-11-12T22:26:11.486Z,25.27
2022-11-12T22:28:38.288Z,26.57
2022-11-12T22:31:13.877Z,23.60
2022-11-12T22:33:41.008Z,28.00
2022-11-12T22:36:12.981Z,25.13
2022-11-12T22:38:41.348Z,25.93
2022-11-12T22:41:10.428Z,24.83
2022-11-12T22:43:37.921Z,22.13
2022-11-12T22:46:14.181Z,22.10
2022-11-12T22:48:41.423Z,21.40
2022-11-12T22:51:13.394Z,22.37
2022-11-12T22:53:39.859Z,22.60
2022-11-12T22:56:08.578Z,21.93
2022-11-12T22:58:39.180Z,23.77
2022-11-12T23:01:11.071Z,21.70
2022-11-12T23:03:37.783Z,22.53
2022-11-12T23:06:06.001Z,23.80
2022-11-12T23:08:32.974Z,23.97
2022-11-12T23:11:08.141Z,20.50
2022-11-12T23:13:35.289Z,26.20
2022-11-12T23:16:01.893Z,23.53
2022-11-12T23:18:28.601Z,21.07
2022-11-12T23:21:01.516Z,21.63
2022-11-12T23:23:27.854Z,24.20
2022-11-12T23:25:54.432Z,19.20
2022-11-12T23:28:20.785Z,23.30
2022-11-12T23:30:52.750Z,20.33
2022-11-12T23:33:19.096Z,19.50
2022-11-12T23:35:45.656Z,20.37
2022-11-12T23:38:12.022Z,24.60
2022-11-12T23:40:38.596Z,19.87
2022-11-12T23:43:04.966Z,22.13
2022-11-12T23:45:36.090Z,19.57
2022-11-12T23:48:02.469Z,21.67
2022-11-12T23:50:28.809Z,19.57
2022-11-12T23:52:55.223Z,22.87
2022-11-12T23:55:21.636Z,19.93
2022-11-12T23:57:47.968Z,20.03
